createdAt,value
2023-02-02T00:02:20.170Z,78.44
2023-02-02T00:05:05.521Z,77.95
2023-02-02T00:07:51.583Z,78.75
2023-02-02T00:10:36.712Z,78.55
2023-02-02T00:13:21.618Z,79.05
2023-02-02T00:16:28.508Z,79.03
2023-02-02T00:19:16.395Z,78.47
2023-02-02T00:22:01.258Z,78.77
2023-02-02T00:24:46.526Z,78.67
2023-02-02T00:27:31.323Z,78.95
2023-02-02T00:30:16.809Z,78.93
2023-02-02T00:33:01.670Z,78.47
2023-02-02T00:35:46.639Z,78.17
2023-02-02T00:38:32.152Z,77.89
2023-02-02T00:41:17.924Z,78.21
2023-02-02T00:44:22.264Z,78.68
2023-02-02T00:47:07.413Z,78.07
2023-02-02T00:49:52.222Z,78.01
2023-02-02T00:52:37.989Z,78.03
2023-02-02T00:55:25.663Z,78.37
2023-02-02T00:58:10.960Z,78.75
2023-02-02T01:00:56.947Z,78.73
2023-02-02T01:03:42.072Z,78.90
2023-02-02T01:06:27.609Z,79.38
2023-02-02T01:09:12.691Z,79.54
2023-02-02T01:11:57.769Z,78.68
2023-02-02T01:14:42.761Z,78.28
2023-02-02T01:17:27.663Z,78.29
2023-02-02T01:20:19.445Z,77.81
2023-02-02T01:23:05.507Z,77.86
2023-02-02T01:25:58.160Z,78.10
2023-02-02T01:28:42.969Z,78.43
2023-02-02T01:31:27.818Z,78.29
2023-02-02T01:34:13.373Z,77.81
2023-02-02T01:36:58.445Z,77.98
2023-02-02T01:39:43.442Z,77.79
2023-02-02T01:42:28.236Z,77.60
2023-02-02T01:45:19.269Z,77.95
2023-02-02T01:48:04.424Z,78.42
2023-02-02T01:50:52.835Z,78.10
2023-02-02T01:53:38.075Z,78.58
2023-02-02T01:56:32.081Z,78.44
2023-02-02T01:59:17.416Z,78.78
2023-02-02T02:02:02.930Z,78.51
2023-02-02T02:04:50.346Z,78.76
2023-02-02T02:07:35.878Z,78.22
2023-02-02T02:10:21.202Z,78.36
2023-02-02T02:13:06.906Z,78.39
2023-02-02T02:16:19.219Z,77.69
2023-02-02T02:20:07.656Z,78.18
2023-02-02T02:23:46.569Z,77.56
2023-02-02T02:27:11.767Z,77.41
2023-02-02T02:30:24.184Z,77.48
2023-02-02T02:33:25.251Z,77.68
2023-02-02T02:36:27.749Z,77.68
2023-02-02T02:39:22.538Z,78.27
2023-02-02T02:42:14.075Z,78.65
2023-02-02T02:45:02.392Z,78.06
2023-02-02T02:47:50.093Z,78.19
2023-02-02T02:50:34.982Z,78.56
2023-02-02T02:53:24.080Z,79.04
2023-02-02T02:56:28.428Z,78.58
2023-02-02T02:59:39.353Z,79.09
2023-02-02T03:03:02.677Z,78.86
2023-02-02T03:06:08.164Z,78.53
2023-02-02T03:09:25.736Z,78.90
2023-02-02T03:12:10.754Z,78.96
2023-02-02T03:14:55.767Z,79.51
2023-02-02T03:17:41.341Z,79.43
2023-02-02T03:20:26.562Z,79.07
2023-02-02T03:23:12.367Z,79.46
2023-02-02T03:25:57.211Z,79.26
2023-02-02T03:28:42.030Z,79.07
2023-02-02T03:31:28.461Z,79.35
2023-02-02T03:34:13.345Z,79.01
2023-02-02T03:36:59.215Z,79.76
2023-02-02T03:39:43.974Z,79.44
2023-02-02T03:42:28.994Z,79.43
2023-02-02T03:45:13.755Z,79.32
2023-02-02T03:47:58.724Z,79.89
2023-02-02T03:50:43.514Z,79.64
2023-02-02T03:53:28.706Z,80.24
2023-02-02T03:56:14.197Z,80.33
2023-02-02T03:58:59.346Z,80.28
2023-02-02T04:01:44.309Z,80.59
2023-02-02T04:04:29.592Z,80.23
2023-02-02T04:07:14.995Z,80.61
2023-02-02T04:10:00.151Z,79.99
2023-02-02T04:12:45.480Z,80.38
2023-02-02T04:15:30.629Z,79.68
2023-02-02T04:18:15.506Z,79.83
2023-02-02T04:21:01.955Z,80.28
2023-02-02T04:23:47.094Z,79.49
2023-02-02T04:26:32.377Z,79.74
2023-02-02T04:29:17.240Z,80.17
2023-02-02T04:32:02.633Z,80.45
2023-02-02T04:34:47.655Z,80.48
2023-02-02T04:37:33.008Z,80.54
2023-02-02T04:40:18.065Z,80.45
2023-02-02T04:43:03.308Z,81.04
2023-02-02T04:45:49.831Z,80.49
2023-02-02T04:48:35.229Z,80.94
2023-02-02T04:51:20.417Z,80.96
2023-02-02T04:54:05.856Z,80.98
2023-02-02T04:56:50.971Z,81.28
2023-02-02T04:59:35.823Z,80.98
2023-02-02T05:02:20.656Z,81.13
2023-02-02T05:05:08.692Z,81.21
2023-02-02T05:07:53.539Z,80.91
2023-02-02T05:10:44.987Z,81.62
2023-02-02T05:13:30.109Z,81.32
2023-02-02T05:16:15.500Z,81.48
2023-02-02T05:19:00.768Z,81.74
2023-02-02T05:21:50.605Z,81.35
2023-02-02T05:24:35.655Z,81.87
2023-02-02T05:27:20.958Z,82.54
2023-02-02T05:30:06.434Z,82.39
2023-02-02T05:32:51.600Z,82.11
2023-02-02T05:35:36.730Z,82.80
2023-02-02T05:38:21.628Z,83.05
2023-02-02T05:41:06.733Z,83.06
2023-02-02T05:43:51.487Z,83.24
2023-02-02T05:46:36.319Z,82.82
2023-02-02T05:49:21.201Z,82.83
2023-02-02T05:52:06.606Z,82.92
2023-02-02T05:54:52.564Z,83.41
2023-02-02T05:57:37.510Z,83.35
2023-02-02T06:00:22.756Z,83.56
2023-02-02T06:03:07.993Z,83.61
2023-02-02T06:05:53.079Z,83.72
2023-02-02T06:08:37.965Z,83.33
2023-02-02T06:11:23.049Z,83.82
2023-02-02T06:14:08.908Z,83.76
2023-02-02T06:16:53.824Z,84.02
2023-02-02T06:19:39.047Z,84.01
2023-02-02T06:22:23.988Z,83.72
2023-02-02T06:25:09.751Z,83.79
2023-02-02T06:27:58.952Z,83.63
2023-02-02T06:30:44.343Z,84.00
2023-02-02T06:33:29.487Z,83.92
2023-02-02T06:36:15.035Z,83.77
2023-02-02T06:39:00.118Z,83.71
2023-02-02T06:41:46.515Z,84.33
2023-02-02T06:44:31.241Z,84.79
2023-02-02T06:47:17.011Z,83.81
2023-02-02T06:50:02.033Z,84.67
2023-02-02T06:52:49.109Z,84.44
2023-02-02T06:55:33.948Z,84.79
2023-02-02T06:58:19.042Z,84.49
2023-02-02T07:01:09.927Z,84.43
2023-02-02T07:03:54.873Z,84.34
2023-02-02T07:06:40.195Z,84.49
2023-02-02T07:09:25.289Z,84.29
2023-02-02T07:12:10.123Z,84.37
2023-02-02T07:14:54.938Z,84.65
2023-02-02T07:17:40.224Z,84.14
2023-02-02T07:20:25.496Z,84.21
2023-02-02T07:23:11.938Z,84.46
2023-02-02T07:26:16.502Z,84.57
2023-02-02T07:29:01.939Z,84.34
2023-02-02T07:31:46.864Z,84.27
2023-02-02T07:34:32.032Z,83.81
2023-02-02T07:37:16.995Z,84.19
2023-02-02T07:40:02.282Z,83.89
2023-02-02T07:42:48.465Z,84.15
2023-02-02T07:45:33.295Z,83.63
2023-02-02T07:48:18.288Z,84.27
2023-02-02T07:51:06.037Z,83.86
2023-02-02T07:53:53.369Z,83.64
2023-02-02T07:56:39.755Z,83.76
2023-02-02T07:59:24.533Z,83.55
2023-02-02T08:02:10.370Z,83.86
2023-02-02T08:04:55.287Z,83.54
2023-02-02T08:07:40.280Z,83.50
2023-02-02T08:10:25.367Z,83.45
2023-02-02T08:13:10.115Z,84.04
2023-02-02T08:15:58.364Z,83.92
2023-02-02T08:18:44.352Z,83.45
2023-02-02T08:21:29.079Z,83.75
2023-02-02T08:24:14.151Z,83.78
2023-02-02T08:26:59.039Z,83.16
2023-02-02T08:29:44.366Z,83.08
2023-02-02T08:32:31.044Z,83.21
2023-02-02T08:35:16.363Z,83.20
2023-02-02T08:38:05.230Z,82.90
2023-02-02T08:40:50.628Z,82.69
2023-02-02T08:43:35.955Z,83.08
2023-02-02T08:46:22.041Z,82.42
2023-02-02T08:49:10.825Z,82.68
2023-02-02T08:51:56.014Z,82.93
2023-02-02T08:54:40.871Z,82.56
2023-02-02T08:57:27.473Z,82.67
2023-02-02T09:00:13.407Z,82.48
2023-02-02T09:02:58.539Z,82.65
2023-02-02T09:05:44.108Z,82.60
2023-02-02T09:08:29.159Z,82.54
2023-02-02T09:11:17.085Z,82.42
2023-02-02T09:14:03.099Z,82.45
2023-02-02T09:16:48.211Z,82.18
2023-02-02T09:19:33.012Z,81.65
2023-02-02T09:22:18.024Z,80.80
2023-02-02T09:25:03.240Z,79.77
2023-02-02T09:27:48.170Z,80.32
2023-02-02T09:30:33.123Z,80.77
2023-02-02T09:33:18.266Z,80.56
2023-02-02T09:36:05.202Z,80.34
2023-02-02T09:38:51.043Z,80.25
2023-02-02T09:42:04.304Z,79.17
2023-02-02T09:45:06.031Z,78.83
2023-02-02T09:47:50.995Z,78.71
2023-02-02T09:50:45.990Z,78.77
2023-02-02T09:53:55.122Z,78.25
2023-02-02T09:56:43.518Z,78.08
2023-02-02T09:59:34.801Z,78.39
2023-02-02T10:02:24.093Z,77.80
2023-02-02T10:05:34.003Z,77.74
2023-02-02T10:08:34.817Z,78.27
2023-02-02T10:11:32.916Z,78.49
2023-02-02T10:14:24.126Z,78.85
2023-02-02T10:17:34.513Z,78.71
2023-02-02T10:20:47.600Z,79.27
2023-02-02T10:23:38.631Z,78.78
2023-02-02T10:26:39.271Z,78.61
2023-02-02T10:29:24.254Z,77.70
2023-02-02T10:32:23.697Z,77.56
2023-02-02T10:35:33.644Z,78.44
2023-02-02T10:38:57.712Z,78.80
2023-02-02T10:41:59.667Z,78.20
2023-02-02T10:44:57.877Z,77.16
2023-02-02T10:47:43.533Z,76.96
2023-02-02T10:50:28.942Z,77.31
2023-02-02T10:53:15.692Z,77.63
2023-02-02T10:56:08.699Z,75.63
2023-02-02T10:59:26.005Z,74.98
2023-02-02T11:02:20.342Z,75.72
2023-02-02T11:05:25.561Z,76.00
2023-02-02T11:08:14.706Z,75.10
2023-02-02T11:11:11.176Z,75.17
2023-02-02T11:14:08.044Z,74.45
2023-02-02T11:17:05.206Z,73.34
2023-02-02T11:19:51.211Z,73.73
2023-02-02T11:22:39.240Z,72.46
2023-02-02T11:25:35.166Z,73.50
2023-02-02T11:28:24.068Z,73.64
2023-02-02T11:31:09.480Z,75.16
2023-02-02T11:34:07.284Z,74.91
2023-02-02T11:37:13.421Z,74.66
2023-02-02T11:40:17.121Z,74.35
2023-02-02T11:43:19.784Z,75.37
2023-02-02T11:46:07.963Z,74.29
2023-02-02T11:49:08.317Z,74.55
2023-02-02T11:51:58.209Z,75.28
2023-02-02T11:54:48.942Z,75.76
2023-02-02T11:57:35.277Z,77.45
2023-02-02T12:00:26.988Z,78.23
2023-02-02T12:03:24.723Z,79.84
2023-02-02T12:06:22.030Z,80.24
2023-02-02T12:09:19.567Z,80.57
2023-02-02T12:12:18.927Z,80.93
2023-02-02T12:15:11.793Z,79.40
2023-02-02T12:18:20.025Z,78.43
2023-02-02T12:21:05.921Z,78.72
2023-02-02T12:24:18.872Z,79.48
2023-02-02T12:27:26.564Z,80.28
2023-02-02T12:30:27.161Z,81.17
2023-02-02T12:33:32.791Z,80.75
2023-02-02T12:36:27.132Z,81.19
2023-02-02T12:39:31.001Z,79.83
2023-02-02T12:42:35.033Z,78.34
2023-02-02T12:45:33.120Z,78.50
2023-02-02T12:48:27.408Z,77.62
2023-02-02T12:51:41.398Z,77.26
2023-02-02T12:54:51.050Z,76.70
2023-02-02T12:58:21.292Z,76.49
2023-02-02T13:01:30.418Z,77.01
2023-02-02T13:04:45.210Z,75.77
2023-02-02T13:07:42.749Z,76.02
2023-02-02T13:10:51.877Z,75.98
2023-02-02T13:13:39.381Z,76.69
2023-02-02T13:16:25.988Z,76.11
2023-02-02T13:19:28.837Z,75.47
2023-02-02T13:22:19.913Z,74.69
2023-02-02T13:25:09.764Z,75.22
2023-02-02T13:27:55.470Z,74.26
2023-02-02T13:30:41.359Z,73.41
2023-02-02T13:33:32.104Z,72.04
2023-02-02T13:36:29.901Z,71.28
2023-02-02T13:39:20.315Z,71.54
2023-02-02T13:42:17.142Z,72.07
2023-02-02T13:45:17.850Z,70.68
2023-02-02T13:48:25.046Z,69.96
2023-02-02T13:51:36.944Z,68.94
2023-02-02T13:54:56.267Z,70.13
2023-02-02T13:58:04.026Z,72.44
2023-02-02T14:00:56.481Z,73.76
2023-02-02T14:03:53.131Z,74.63
2023-02-02T14:07:10.602Z,74.55
2023-02-02T14:09:55.724Z,75.47
2023-02-02T14:12:41.295Z,75.68
2023-02-02T14:15:40.976Z,76.13
2023-02-02T14:18:54.481Z,76.07
2023-02-02T14:21:39.440Z,76.30
2023-02-02T14:24:27.403Z,75.38
2023-02-02T14:27:15.793Z,75.44
2023-02-02T14:30:00.740Z,73.88
2023-02-02T14:32:46.679Z,75.00
2023-02-02T14:35:31.755Z,74.56
2023-02-02T14:38:41.609Z,74.44
2023-02-02T14:42:06.874Z,73.83
2023-02-02T14:45:09.616Z,73.68
2023-02-02T14:48:02.274Z,73.71
2023-02-02T14:50:55.782Z,74.61
2023-02-02T14:53:53.763Z,74.32
2023-02-02T14:56:49.792Z,74.58
2023-02-02T14:59:38.663Z,74.21
2023-02-02T15:02:29.478Z,74.31
2023-02-02T15:05:30.803Z,74.22
2023-02-02T15:08:28.149Z,73.87
2023-02-02T15:11:28.632Z,74.28
2023-02-02T15:14:15.923Z,74.25
2023-02-02T15:17:20.147Z,74.45
2023-02-02T15:20:29.767Z,74.65
2023-02-02T15:23:31.684Z,75.35
2023-02-02T15:26:32.730Z,74.92
2023-02-02T15:29:27.900Z,74.86
2023-02-02T15:32:20.211Z,75.39
2023-02-02T15:35:13.108Z,75.33
2023-02-02T15:38:01.165Z,75.63
2023-02-02T15:40:48.378Z,76.08
2023-02-02T15:43:35.322Z,76.16
2023-02-02T15:46:25.229Z,76.52
2023-02-02T15:49:36.214Z,76.71
2023-02-02T15:52:29.641Z,77.15
2023-02-02T15:55:34.583Z,77.71
2023-02-02T15:58:33.985Z,78.12
2023-02-02T16:01:22.499Z,78.54
2023-02-02T16:04:16.513Z,79.06
2023-02-02T16:07:04.883Z,79.53
2023-02-02T16:09:49.985Z,79.53
2023-02-02T16:12:35.441Z,79.94
2023-02-02T16:15:23.413Z,80.62
2023-02-02T16:18:15.375Z,80.57
2023-02-02T16:21:03.363Z,80.59
2023-02-02T16:23:48.864Z,81.08
2023-02-02T16:26:35.382Z,81.32
2023-02-02T16:29:20.985Z,81.43
2023-02-02T16:32:06.315Z,81.65
2023-02-02T16:34:51.116Z,81.95
2023-02-02T16:37:36.516Z,82.04
2023-02-02T16:40:29.480Z,82.71
2023-02-02T16:43:27.666Z,82.45
2023-02-02T16:46:15.148Z,82.55
2023-02-02T16:49:00.832Z,82.95
2023-02-02T16:51:48.328Z,83.24
2023-02-02T16:54:34.273Z,83.18
2023-02-02T16:57:29.097Z,83.75
2023-02-02T17:00:33.413Z,83.77
2023-02-02T17:03:20.674Z,83.53
2023-02-02T17:06:06.603Z,83.49
2023-02-02T17:08:53.159Z,83.72
2023-02-02T17:11:38.219Z,83.54
2023-02-02T17:14:30.188Z,83.45
2023-02-02T17:17:14.931Z,83.69
2023-02-02T17:20:00.804Z,84.07
2023-02-02T17:22:59.562Z,83.90
2023-02-02T17:25:45.309Z,84.63
2023-02-02T17:28:30.393Z,83.99
2023-02-02T17:31:16.874Z,84.54
2023-02-02T17:34:01.835Z,84.00
2023-02-02T17:36:46.838Z,84.18
2023-02-02T17:39:31.524Z,84.43
2023-02-02T17:42:28.528Z,84.11
2023-02-02T17:45:23.935Z,84.44
2023-02-02T17:48:12.336Z,84.63
2023-02-02T17:50:57.064Z,84.48
2023-02-02T17:53:42.535Z,84.94
2023-02-02T17:56:27.738Z,85.22
2023-02-02T17:59:12.973Z,85.76
2023-02-02T18:01:58.850Z,85.71
2023-02-02T18:04:45.598Z,85.56
2023-02-02T18:07:34.195Z,85.34
2023-02-02T18:10:19.431Z,84.98
2023-02-02T18:13:05.779Z,85.09
2023-02-02T18:15:55.035Z,85.00
2023-02-02T18:18:40.739Z,85.07
2023-02-02T18:21:26.858Z,84.87
2023-02-02T18:24:15.350Z,84.87
2023-02-02T18:27:01.815Z,84.58
2023-02-02T18:29:47.659Z,84.68
2023-02-02T18:32:39.859Z,85.26
2023-02-02T18:35:25.843Z,85.16
2023-02-02T18:38:11.389Z,85.17
2023-02-02T18:40:57.462Z,85.54
2023-02-02T18:43:42.751Z,85.34
2023-02-02T18:46:27.577Z,85.80
2023-02-02T18:49:13.229Z,85.51
2023-02-02T18:51:58.415Z,85.14
2023-02-02T18:54:46.499Z,85.50
2023-02-02T18:57:33.646Z,85.68
2023-02-02T19:00:22.311Z,85.40
2023-02-02T19:03:08.588Z,86.15
2023-02-02T19:06:12.328Z,85.93
2023-02-02T19:08:57.498Z,86.44
2023-02-02T19:11:54.615Z,85.94
2023-02-02T19:14:40.723Z,85.95
2023-02-02T19:17:26.986Z,85.91
2023-02-02T19:20:31.861Z,85.99
2023-02-02T19:23:21.694Z,85.69
2023-02-02T19:26:25.293Z,85.73
2023-02-02T19:29:25.096Z,85.78
2023-02-02T19:32:23.322Z,85.95
2023-02-02T19:35:22.803Z,85.51
2023-02-02T19:38:14.249Z,85.91
2023-02-02T19:41:04.304Z,85.68
2023-02-02T19:43:55.125Z,85.75
2023-02-02T19:46:43.752Z,85.73
2023-02-02T19:49:40.402Z,85.65
2023-02-02T19:52:26.657Z,85.97
2023-02-02T19:55:27.636Z,85.65
2023-02-02T19:58:38.257Z,86.16
2023-02-02T20:01:27.704Z,86.13
2023-02-02T20:04:17.333Z,86.21
2023-02-02T20:07:12.383Z,86.32
2023-02-02T20:10:16.093Z,86.16
2023-02-02T20:13:11.343Z,86.08
2023-02-02T20:16:03.509Z,86.36
2023-02-02T20:18:57.974Z,86.11
2023-02-02T20:21:50.453Z,85.85
2023-02-02T20:24:42.207Z,86.29
2023-02-02T20:27:28.633Z,86.62
2023-02-02T20:30:24.589Z,86.61
2023-02-02T20:33:22.834Z,86.85
2023-02-02T20:36:28.432Z,87.37
2023-02-02T20:39:27.348Z,87.62
2023-02-02T20:42:15.479Z,87.82
2023-02-02T20:45:00.325Z,88.45
2023-02-02T20:47:48.738Z,88.72
2023-02-02T20:50:33.655Z,88.34
2023-02-02T20:53:18.355Z,88.51
2023-02-02T20:56:03.464Z,88.70
2023-02-02T20:58:54.362Z,88.80
2023-02-02T21:01:40.399Z,88.89
2023-02-02T21:04:26.344Z,88.84
2023-02-02T21:07:17.489Z,88.65
2023-02-02T21:10:03.004Z,88.30
2023-02-02T21:12:52.027Z,89.30
2023-02-02T21:15:37.243Z,89.62
2023-02-02T21:18:24.852Z,89.24
2023-02-02T21:21:14.223Z,89.78
2023-02-02T21:24:00.757Z,89.57
2023-02-02T21:26:51.277Z,89.75
2023-02-02T21:29:37.854Z,89.59
2023-02-02T21:32:23.672Z,90.02
2023-02-02T21:35:08.853Z,90.19
2023-02-02T21:37:57.901Z,89.68
2023-02-02T21:40:43.243Z,90.19
2023-02-02T21:43:28.412Z,90.09
2023-02-02T21:46:19.828Z,90.62
2023-02-02T21:49:10.225Z,90.02
2023-02-02T21:51:59.909Z,90.10
2023-02-02T21:54:45.820Z,90.01
2023-02-02T21:57:37.379Z,90.46
2023-02-02T22:00:27.406Z,90.89
2023-02-02T22:03:36.729Z,90.86
2023-02-02T22:06:26.344Z,90.75
2023-02-02T22:09:11.460Z,91.23
2023-02-02T22:12:00.413Z,91.34
2023-02-02T22:14:46.442Z,91.17
2023-02-02T22:17:39.710Z,90.92
2023-02-02T22:20:33.902Z,90.60
2023-02-02T22:23:22.963Z,90.72
2023-02-02T22:26:24.039Z,91.24
2023-02-02T22:29:18.533Z,91.18
2023-02-02T22:32:03.743Z,91.07
2023-02-02T22:34:48.687Z,91.70
2023-02-02T22:37:33.634Z,91.63
2023-02-02T22:40:22.286Z,91.72
2023-02-02T22:43:07.835Z,91.25
2023-02-02T22:45:53.224Z,91.40
2023-02-02T22:48:38.424Z,91.65
2023-02-02T22:51:23.246Z,91.98
2023-02-02T22:54:08.048Z,91.57
2023-02-02T22:56:53.305Z,92.24
2023-02-02T22:59:38.067Z,92.60
2023-02-02T23:02:23.435Z,92.18
2023-02-02T23:05:11.975Z,92.68
2023-02-02T23:07:57.333Z,92.58
2023-02-02T23:10:42.579Z,92.61
2023-02-02T23:13:27.336Z,92.38
2023-02-02T23:16:12.452Z,92.19
2023-02-02T23:18:58.026Z,92.34
2023-02-02T23:21:42.851Z,92.75
2023-02-02T23:24:27.720Z,92.41
2023-02-02T23:27:12.948Z,93.06
2023-02-02T23:29:58.272Z,92.77
2023-02-02T23:32:43.204Z,92.78
2023-02-02T23:35:28.774Z,92.45
2023-02-02T23:38:14.259Z,92.40
2023-02-02T23:41:00.215Z,92.67
2023-02-02T23:43:45.273Z,92.59
2023-02-02T23:46:30.735Z,92.84
2023-02-02T23:49:16.472Z,92.35
2023-02-02T23:52:02.154Z,93.07
2023-02-02T23:54:47.201Z,92.99
2023-02-02T23:57:33.685Z,93.06
